createdAt,value
2022-10-18T00:01:02.770Z,25.80
2022-10-18T00:03:30.780Z,27.95
2022-10-18T00:06:00.617Z,20.55
2022-10-18T00:08:29.015Z,34.58
2022-10-18T00:10:56.939Z,28.63
2022-10-18T00:13:25.195Z,26.00
2022-10-18T00:15:55.437Z,35.65
2022-10-18T00:18:24.325Z,27.08
2022-10-18T00:21:01.931Z,29.50
2022-10-18T00:23:31.113Z,37.30
2022-10-18T00:26:05.124Z,38.65
2022-10-18T00:28:34.119Z,30.83
2022-10-18T00:31:14.418Z,31.95
2022-10-18T00:33:42.675Z,33.53
2022-10-18T00:36:12.214Z,36.58
2022-10-18T00:38:40.593Z,45.05
2022-10-18T00:41:11.033Z,25.10
2022-10-18T00:43:58.201Z,38.85
2022-10-18T00:46:28.782Z,41.10
2022-10-18T00:48:58.345Z,37.17
2022-10-18T00:51:33.312Z,42.95
2022-10-18T00:54:01.546Z,33.08
2022-10-18T00:56:29.914Z,33.85
2022-10-18T00:58:58.512Z,39.25
2022-10-18T01:01:28.392Z,35.88
2022-10-18T01:03:57.551Z,40.70
2022-10-18T01:06:28.164Z,37.65
2022-10-18T01:09:12.161Z,45.15
2022-10-18T01:12:03.806Z,57.65
2022-10-18T01:14:43.895Z,59.30
2022-10-18T01:17:19.127Z,38.50
2022-10-18T01:20:04.086Z,51.95
2022-10-18T01:22:37.647Z,32.20
2022-10-18T01:25:21.349Z,27.30
2022-10-18T01:27:57.192Z,36.38
2022-10-18T01:30:55.854Z,41.95
2022-10-18T01:33:34.114Z,66.43
2022-10-18T01:36:07.350Z,39.03
2022-10-18T01:38:37.866Z,68.28
2022-10-18T01:41:11.829Z,32.83
2022-10-18T01:43:44.643Z,92.93
2022-10-18T01:46:18.799Z,47.42
2022-10-18T01:48:47.625Z,49.72
2022-10-18T01:51:15.999Z,114.20
2022-10-18T01:53:44.109Z,62.95
2022-10-18T01:56:20.423Z,38.97
2022-10-18T01:58:58.583Z,53.03
2022-10-18T02:04:19.744Z,65.40
2022-10-18T02:06:53.146Z,189.95
2022-10-18T02:09:24.906Z,73.05
2022-10-18T02:11:55.641Z,72.90
2022-10-18T02:14:26.695Z,93.53
2022-10-18T02:16:59.405Z,55.10
2022-10-18T02:19:31.913Z,138.47
2022-10-18T02:22:01.078Z,86.00
2022-10-18T02:24:35.628Z,114.75
2022-10-18T02:27:04.003Z,118.63
2022-10-18T02:29:32.171Z,82.78
2022-10-18T02:32:07.917Z,55.10
2022-10-18T02:34:40.573Z,33.05
2022-10-18T02:37:11.835Z,29.23
2022-10-18T02:39:45.847Z,76.43
2022-10-18T02:42:14.971Z,65.70
2022-10-18T02:44:43.307Z,43.83
2022-10-18T02:47:13.542Z,74.78
2022-10-18T02:49:41.590Z,47.67
2022-10-18T02:52:09.593Z,50.58
2022-10-18T02:54:37.687Z,51.55
2022-10-18T02:57:05.640Z,32.95
2022-10-18T02:59:33.590Z,49.65
2022-10-18T03:02:01.502Z,27.30
2022-10-18T03:04:30.736Z,24.45
2022-10-18T03:06:58.581Z,21.83
2022-10-18T03:09:26.658Z,32.05
2022-10-18T03:11:54.472Z,33.35
2022-10-18T03:14:22.413Z,26.40
2022-10-18T03:16:50.505Z,27.17
2022-10-18T03:19:18.516Z,28.15
2022-10-18T03:21:47.677Z,26.00
2022-10-18T03:24:15.939Z,94.50
2022-10-18T03:26:43.744Z,47.17
2022-10-18T03:29:12.432Z,81.63
2022-10-18T03:31:40.521Z,21.85
2022-10-18T03:34:08.857Z,32.38
2022-10-18T03:36:36.769Z,27.10
2022-10-18T03:39:06.120Z,40.25
2022-10-18T03:41:34.240Z,28.70
2022-10-18T03:44:02.208Z,32.95
2022-10-18T03:46:30.097Z,69.95
2022-10-18T03:48:57.966Z,63.25
2022-10-18T03:51:26.069Z,21.45
2022-10-18T03:53:53.904Z,38.35
2022-10-18T03:56:23.138Z,37.35
2022-10-18T03:58:51.016Z,45.88
2022-10-18T04:01:18.914Z,33.90
2022-10-18T04:03:47.009Z,65.68
2022-10-18T04:06:15.118Z,51.50
2022-10-18T04:08:43.119Z,35.42
2022-10-18T04:11:12.032Z,48.28
2022-10-18T04:13:41.240Z,26.13
2022-10-18T04:16:09.327Z,25.13
2022-10-18T04:18:37.160Z,40.00
2022-10-18T04:21:05.462Z,46.65
2022-10-18T04:23:36.333Z,65.90
2022-10-18T04:26:07.016Z,51.80
2022-10-18T04:28:39.894Z,25.83
2022-10-18T04:31:10.010Z,45.40
2022-10-18T04:33:38.032Z,35.15
2022-10-18T04:36:06.272Z,31.80
2022-10-18T04:38:34.182Z,83.38
2022-10-18T04:41:02.075Z,23.23
2022-10-18T04:43:29.984Z,32.40
2022-10-18T04:45:57.938Z,45.50
2022-10-18T04:48:27.779Z,27.05
2022-10-18T04:50:55.738Z,44.53
2022-10-18T04:53:23.679Z,21.45
2022-10-18T04:55:52.087Z,48.83
2022-10-18T04:58:20.190Z,30.13
2022-10-18T05:00:48.516Z,63.13
2022-10-18T05:03:16.877Z,52.28
2022-10-18T05:06:03.381Z,46.75
2022-10-18T05:08:32.727Z,29.23
2022-10-18T05:11:01.183Z,25.52
2022-10-18T05:13:29.180Z,23.70
2022-10-18T05:15:59.379Z,29.13
2022-10-18T05:18:27.508Z,26.55
2022-10-18T05:20:56.832Z,31.48
2022-10-18T05:23:24.984Z,26.23
2022-10-18T05:25:53.184Z,24.17
2022-10-18T05:31:11.356Z,19.67
2022-10-18T05:33:39.744Z,21.50
2022-10-18T05:36:10.334Z,23.33
2022-10-18T05:38:42.811Z,21.73
2022-10-18T05:41:11.333Z,26.13
2022-10-18T05:43:39.508Z,27.05
2022-10-18T05:46:12.089Z,28.92
2022-10-18T05:48:43.305Z,37.10
2022-10-18T05:51:12.985Z,26.05
2022-10-18T05:53:40.843Z,34.58
2022-10-18T05:56:11.652Z,30.42
2022-10-18T05:58:39.576Z,57.30
2022-10-18T06:01:08.500Z,15.35
2022-10-18T06:03:36.974Z,12.23
2022-10-18T06:06:07.002Z,14.70
2022-10-18T06:08:37.231Z,29.20
2022-10-18T06:11:08.124Z,13.32
2022-10-18T06:13:36.071Z,10.88
2022-10-18T06:16:03.955Z,21.73
2022-10-18T06:18:31.780Z,17.92
2022-10-18T06:21:00.112Z,18.52
2022-10-18T06:23:28.688Z,24.13
2022-10-18T06:26:01.063Z,19.70
2022-10-18T06:28:29.526Z,14.30
2022-10-18T06:30:58.222Z,19.38
2022-10-18T06:33:26.621Z,20.05
2022-10-18T06:35:59.375Z,34.95
2022-10-18T06:38:27.712Z,39.30
2022-10-18T06:40:55.896Z,23.88
2022-10-18T06:43:25.724Z,15.55
2022-10-18T06:45:54.448Z,12.00
2022-10-18T06:48:23.462Z,12.73
2022-10-18T06:50:56.904Z,14.77
2022-10-18T06:53:26.042Z,20.27
2022-10-18T06:55:54.125Z,17.17
2022-10-18T06:58:22.039Z,16.60
2022-10-18T07:00:51.308Z,14.05
2022-10-18T07:03:19.205Z,17.08
2022-10-18T07:05:47.443Z,20.70
2022-10-18T07:08:15.407Z,21.63
2022-10-18T07:10:43.413Z,19.13
2022-10-18T07:13:31.574Z,32.25
2022-10-18T07:16:06.335Z,25.15
2022-10-18T07:18:35.562Z,20.48
2022-10-18T07:21:05.005Z,25.90
2022-10-18T07:23:34.512Z,19.63
2022-10-18T07:26:03.531Z,21.48
2022-10-18T07:28:31.581Z,16.83
2022-10-18T07:31:07.535Z,20.67
2022-10-18T07:33:36.018Z,19.30
2022-10-18T07:36:04.699Z,17.85
2022-10-18T07:38:32.901Z,16.75
2022-10-18T07:41:02.184Z,19.25
2022-10-18T07:43:30.716Z,14.48
2022-10-18T07:46:01.294Z,13.65
2022-10-18T07:48:30.917Z,17.30
2022-10-18T07:51:00.308Z,17.13
2022-10-18T07:53:28.657Z,18.23
2022-10-18T07:55:58.962Z,16.67
2022-10-18T07:58:27.197Z,16.70
2022-10-18T08:00:55.244Z,17.83
2022-10-18T08:03:23.221Z,14.80
2022-10-18T08:05:56.006Z,14.80
2022-10-18T08:08:24.717Z,18.02
2022-10-18T08:10:53.721Z,18.60
2022-10-18T08:13:22.299Z,15.95
2022-10-18T08:15:50.446Z,22.73
2022-10-18T08:18:18.413Z,16.98
2022-10-18T08:20:47.134Z,16.35
2022-10-18T08:23:16.577Z,14.02
2022-10-18T08:25:44.992Z,20.65
2022-10-18T08:28:13.850Z,20.08
2022-10-18T08:30:41.793Z,16.05
2022-10-18T08:33:09.782Z,17.85
2022-10-18T08:35:37.800Z,13.77
2022-10-18T08:38:13.879Z,23.40
2022-10-18T08:40:45.415Z,16.02
2022-10-18T08:43:23.670Z,16.70
2022-10-18T08:45:54.245Z,20.00
2022-10-18T08:48:31.892Z,16.85
2022-10-18T08:51:01.272Z,19.15
2022-10-18T08:53:36.307Z,12.50
2022-10-18T08:56:14.901Z,21.67
2022-10-18T08:58:45.009Z,13.45
2022-10-18T09:01:25.201Z,18.98
2022-10-18T09:04:13.636Z,21.52
2022-10-18T09:06:49.207Z,17.70
2022-10-18T09:09:28.025Z,12.45
2022-10-18T09:12:08.533Z,18.38
2022-10-18T09:15:05.545Z,16.77
2022-10-18T09:17:46.565Z,15.95
2022-10-18T09:20:23.735Z,12.52
2022-10-18T09:22:57.723Z,19.88
2022-10-18T09:25:28.789Z,24.08
2022-10-18T09:28:15.021Z,18.10
2022-10-18T09:30:49.753Z,12.18
2022-10-18T09:33:30.059Z,20.50
2022-10-18T09:36:00.274Z,18.65
2022-10-18T09:38:32.203Z,23.65
2022-10-18T09:41:05.629Z,19.60
2022-10-18T09:43:47.113Z,14.20
2022-10-18T09:46:16.724Z,14.38
2022-10-18T09:48:49.934Z,22.48
2022-10-18T09:51:22.301Z,19.70
2022-10-18T09:54:02.676Z,14.35
2022-10-18T09:56:37.943Z,22.27
2022-10-18T09:59:31.075Z,21.27
2022-10-18T10:01:58.985Z,17.02
2022-10-18T10:04:27.163Z,14.75
2022-10-18T10:06:57.111Z,17.13
2022-10-18T10:09:29.489Z,13.80
2022-10-18T10:11:58.809Z,15.32
2022-10-18T10:14:30.454Z,14.93
2022-10-18T10:17:03.566Z,26.00
2022-10-18T10:19:35.912Z,23.13
2022-10-18T10:22:08.178Z,10.80
2022-10-18T10:24:48.086Z,33.88
2022-10-18T10:27:20.945Z,22.75
2022-10-18T10:30:06.757Z,15.25
2022-10-18T10:32:47.116Z,18.42
2022-10-18T10:35:34.020Z,12.43
2022-10-18T10:38:24.426Z,12.52
2022-10-18T10:40:52.707Z,12.23
2022-10-18T10:43:37.724Z,15.90
2022-10-18T10:46:11.970Z,16.63
2022-10-18T10:48:49.997Z,11.20
2022-10-18T10:51:29.821Z,18.25
2022-10-18T10:54:03.979Z,13.57
2022-10-18T10:56:34.116Z,21.95
2022-10-18T10:59:11.042Z,8.70
2022-10-18T11:01:41.704Z,10.77
2022-10-18T11:04:27.961Z,8.77
2022-10-18T11:07:06.029Z,20.58
2022-10-18T11:09:54.586Z,13.70
2022-10-18T11:12:28.895Z,20.38
2022-10-18T11:15:12.982Z,18.23
2022-10-18T11:17:47.462Z,18.05
2022-10-18T11:20:24.169Z,17.52
2022-10-18T11:23:00.634Z,12.65
2022-10-18T11:25:44.608Z,19.70
2022-10-18T11:28:21.381Z,13.02
2022-10-18T11:31:06.029Z,13.82
2022-10-18T11:34:08.345Z,14.05
2022-10-18T11:36:54.759Z,19.58
2022-10-18T11:39:43.287Z,15.10
2022-10-18T11:42:20.412Z,17.48
2022-10-18T11:45:02.759Z,13.52
2022-10-18T11:47:39.678Z,15.85
2022-10-18T11:50:21.322Z,16.75
2022-10-18T11:52:59.516Z,23.05
2022-10-18T11:55:37.330Z,12.52
2022-10-18T11:58:19.302Z,13.77
2022-10-18T12:00:52.395Z,20.17
2022-10-18T12:03:29.177Z,18.38
2022-10-18T12:06:03.139Z,17.30
2022-10-18T12:08:37.276Z,19.60
2022-10-18T12:11:14.474Z,18.33
2022-10-18T12:13:47.882Z,12.13
2022-10-18T12:16:17.787Z,17.23
2022-10-18T12:18:57.149Z,14.93
2022-10-18T12:21:30.307Z,10.48
2022-10-18T12:24:00.794Z,15.98
2022-10-18T12:26:30.038Z,10.98
2022-10-18T12:29:08.081Z,12.55
2022-10-18T12:31:42.205Z,17.85
2022-10-18T12:34:36.468Z,16.80
2022-10-18T12:37:41.284Z,16.65
2022-10-18T12:40:20.255Z,10.13
2022-10-18T12:42:52.299Z,14.32
2022-10-18T12:45:29.348Z,14.30
2022-10-18T12:48:01.392Z,13.75
2022-10-18T12:50:38.759Z,14.45
2022-10-18T12:53:18.967Z,10.35
2022-10-18T12:55:49.032Z,17.77
2022-10-18T12:58:29.807Z,14.95
2022-10-18T13:01:06.371Z,15.32
2022-10-18T13:04:00.498Z,15.13
2022-10-18T13:09:22.822Z,13.27
2022-10-18T13:11:52.584Z,15.95
2022-10-18T13:15:07.141Z,15.88
2022-10-18T13:17:47.081Z,18.45
2022-10-18T13:20:27.230Z,12.13
2022-10-18T13:23:18.695Z,11.57
2022-10-18T13:25:59.934Z,11.35
2022-10-18T13:28:36.561Z,18.38
2022-10-18T13:31:17.756Z,16.38
2022-10-18T13:33:46.062Z,15.75
2022-10-18T13:36:23.594Z,14.90
2022-10-18T13:39:04.364Z,14.82
2022-10-18T13:42:13.084Z,7.13
2022-10-18T13:44:43.681Z,7.60
2022-10-18T13:47:14.358Z,16.20
2022-10-18T13:50:07.936Z,19.67
2022-10-18T13:52:56.626Z,15.50
2022-10-18T13:55:43.593Z,17.20
2022-10-18T13:58:22.203Z,14.65
2022-10-18T14:01:03.473Z,11.45
2022-10-18T14:03:58.727Z,19.15
2022-10-18T14:06:30.175Z,14.00
2022-10-18T14:09:09.582Z,14.35
2022-10-18T14:11:51.902Z,18.08
2022-10-18T14:14:29.845Z,12.95
2022-10-18T14:17:04.772Z,14.63
2022-10-18T14:19:37.431Z,15.52
2022-10-18T14:22:12.935Z,13.47
2022-10-18T14:24:44.790Z,11.30
2022-10-18T14:27:21.963Z,12.13
2022-10-18T14:30:08.068Z,19.52
2022-10-18T14:32:36.435Z,11.45
2022-10-18T14:37:55.379Z,13.25
2022-10-18T14:40:37.817Z,18.23
2022-10-18T14:43:14.568Z,12.77
2022-10-18T14:45:44.312Z,17.25
2022-10-18T14:48:17.716Z,19.40
2022-10-18T14:50:48.365Z,19.42
2022-10-18T14:53:21.050Z,11.68
2022-10-18T14:56:01.273Z,16.33
2022-10-18T14:58:29.538Z,12.77
2022-10-18T15:01:00.087Z,12.50
2022-10-18T15:03:29.350Z,14.98
2022-10-18T15:05:59.880Z,13.48
2022-10-18T15:08:33.631Z,17.38
2022-10-18T15:11:02.062Z,16.38
2022-10-18T15:13:32.002Z,9.38
2022-10-18T15:16:01.487Z,10.60
2022-10-18T15:21:11.410Z,9.30
2022-10-18T15:23:39.386Z,11.60
2022-10-18T15:26:13.682Z,8.52
2022-10-18T15:28:49.871Z,15.23
2022-10-18T15:31:25.135Z,15.85
2022-10-18T15:33:54.685Z,13.43
2022-10-18T15:36:29.551Z,8.60
2022-10-18T15:39:07.069Z,7.13
2022-10-18T15:41:40.363Z,14.38
2022-10-18T15:46:47.508Z,14.02
2022-10-18T15:49:56.762Z,17.63
2022-10-18T15:52:38.571Z,12.85
2022-10-18T15:55:39.719Z,11.77
2022-10-18T15:58:13.638Z,7.57
2022-10-18T16:00:46.744Z,10.57
2022-10-18T16:03:17.077Z,6.95
2022-10-18T16:05:45.365Z,9.30
2022-10-18T16:08:21.886Z,3.00
2022-10-18T16:10:50.193Z,7.13
2022-10-18T16:13:19.060Z,9.20
2022-10-18T16:15:47.422Z,7.10
2022-10-18T16:18:19.817Z,5.18
2022-10-18T16:20:49.050Z,10.45
2022-10-18T16:23:20.340Z,11.23
2022-10-18T16:25:49.081Z,10.88
2022-10-18T16:28:19.685Z,7.25
2022-10-18T16:30:54.688Z,11.45
2022-10-18T16:33:24.888Z,8.32
2022-10-18T16:35:53.551Z,11.25
2022-10-18T16:38:34.815Z,6.28
2022-10-18T16:41:04.658Z,7.00
2022-10-18T16:43:33.153Z,10.27
2022-10-18T16:46:01.192Z,8.27
2022-10-18T16:48:30.614Z,7.38
2022-10-18T16:50:59.405Z,14.93
2022-10-18T16:53:28.778Z,9.00
2022-10-18T16:55:58.960Z,7.88
2022-10-18T16:58:28.279Z,8.75
2022-10-18T17:00:56.581Z,11.70
2022-10-18T17:03:25.513Z,7.50
2022-10-18T17:05:56.192Z,9.02
2022-10-18T17:08:26.135Z,14.50
2022-10-18T17:10:56.182Z,9.50
2022-10-18T17:13:25.464Z,12.50
2022-10-18T17:15:54.650Z,7.47
2022-10-18T17:18:26.340Z,5.75
2022-10-18T17:20:56.584Z,10.52
2022-10-18T17:23:24.671Z,6.97
2022-10-18T17:26:04.973Z,13.88
2022-10-18T17:28:35.087Z,5.32
2022-10-18T17:31:47.553Z,9.65
2022-10-18T17:34:21.401Z,4.75
2022-10-18T17:36:50.990Z,5.28
2022-10-18T17:39:18.941Z,5.82
2022-10-18T17:41:46.947Z,15.27
2022-10-18T17:44:15.027Z,10.65
2022-10-18T17:46:43.388Z,6.30
2022-10-18T17:49:11.477Z,9.75
2022-10-18T17:51:41.180Z,6.78
2022-10-18T17:54:10.724Z,14.07
2022-10-18T17:56:40.207Z,7.10
2022-10-18T17:59:08.504Z,11.57
2022-10-18T18:01:36.457Z,6.78
2022-10-18T18:04:04.773Z,8.68
2022-10-18T18:06:35.075Z,6.45
2022-10-18T18:09:07.488Z,6.50
2022-10-18T18:11:38.930Z,6.82
2022-10-18T18:14:09.752Z,8.45
2022-10-18T18:16:39.368Z,4.25
2022-10-18T18:19:09.831Z,12.70
2022-10-18T18:21:39.003Z,7.72
2022-10-18T18:24:07.181Z,4.38
2022-10-18T18:26:37.233Z,13.02
2022-10-18T18:29:05.666Z,8.15
2022-10-18T18:31:38.778Z,7.78
2022-10-18T18:34:10.786Z,7.28
2022-10-18T18:36:39.314Z,16.60
2022-10-18T18:39:08.986Z,14.38
2022-10-18T18:41:38.611Z,10.75
2022-10-18T18:44:07.341Z,10.48
2022-10-18T18:46:38.533Z,6.22
2022-10-18T18:49:07.180Z,5.35
2022-10-18T18:51:37.471Z,6.15
2022-10-18T18:54:06.202Z,4.35
2022-10-18T18:56:34.496Z,11.32
2022-10-18T18:59:04.316Z,8.23
2022-10-18T19:01:34.487Z,5.85
2022-10-18T19:04:03.573Z,5.65
2022-10-18T19:06:33.880Z,4.88
2022-10-18T19:09:04.000Z,6.28
2022-10-18T19:11:35.851Z,4.22
2022-10-18T19:14:05.879Z,12.63
2022-10-18T19:16:35.125Z,7.30
2022-10-18T19:19:06.205Z,11.55
2022-10-18T19:21:35.579Z,4.55
2022-10-18T19:24:04.439Z,9.23
2022-10-18T19:26:35.754Z,13.80
2022-10-18T19:29:08.866Z,4.45
2022-10-18T19:31:37.922Z,4.25
2022-10-18T19:34:07.520Z,8.15
2022-10-18T19:36:36.104Z,7.13
2022-10-18T19:39:05.396Z,10.50
2022-10-18T19:41:33.340Z,9.93
2022-10-18T19:44:01.310Z,4.50
2022-10-18T19:46:30.721Z,6.32
2022-10-18T19:48:58.857Z,8.23
2022-10-18T19:51:28.293Z,5.38
2022-10-18T19:53:57.533Z,10.40
2022-10-18T19:56:27.562Z,6.25
2022-10-18T19:58:57.583Z,6.63
2022-10-18T20:01:31.658Z,9.82
2022-10-18T20:04:04.618Z,6.97
2022-10-18T20:06:33.822Z,7.32
2022-10-18T20:09:02.657Z,10.60
2022-10-18T20:11:32.046Z,12.07
2022-10-18T20:14:00.354Z,12.82
2022-10-18T20:16:32.544Z,10.50
2022-10-18T20:19:05.111Z,12.57
2022-10-18T20:21:36.058Z,10.55
2022-10-18T20:24:05.541Z,12.65
2022-10-18T20:26:34.516Z,10.85
2022-10-18T20:29:02.820Z,9.73
2022-10-18T20:31:34.440Z,17.30
2022-10-18T20:34:06.482Z,12.65
2022-10-18T20:36:37.784Z,9.90
2022-10-18T20:39:06.004Z,12.27
2022-10-18T20:41:36.044Z,11.63
2022-10-18T20:44:08.095Z,17.45
2022-10-18T20:46:37.789Z,16.25
2022-10-18T20:49:08.760Z,12.23
2022-10-18T20:51:37.629Z,7.00
2022-10-18T20:54:09.695Z,8.35
2022-10-18T20:56:38.852Z,8.88
2022-10-18T20:59:09.626Z,9.40
2022-10-18T21:01:39.341Z,7.53
2022-10-18T21:04:10.532Z,11.45
2022-10-18T21:06:41.295Z,9.43
2022-10-18T21:09:11.987Z,13.48
2022-10-18T21:11:42.174Z,7.10
2022-10-18T21:14:12.935Z,12.10
2022-10-18T21:16:41.081Z,8.68
2022-10-18T21:19:13.319Z,8.73
2022-10-18T21:21:41.776Z,5.80
2022-10-18T21:24:09.971Z,10.45
2022-10-18T21:26:38.126Z,8.60
2022-10-18T21:29:06.704Z,11.05
2022-10-18T21:31:36.306Z,9.30
2022-10-18T21:34:07.501Z,5.97
2022-10-18T21:36:38.016Z,5.15
2022-10-18T21:39:08.284Z,7.78
2022-10-18T21:41:36.326Z,4.45
2022-10-18T21:44:08.383Z,5.55
2022-10-18T21:46:39.236Z,5.28
2022-10-18T21:49:08.346Z,12.50
2022-10-18T21:51:38.101Z,11.35
2022-10-18T21:54:08.028Z,5.63
2022-10-18T21:56:36.559Z,5.63
2022-10-18T21:59:05.106Z,6.80
2022-10-18T22:01:35.883Z,7.10
2022-10-18T22:04:07.160Z,5.65
2022-10-18T22:06:37.996Z,3.80
2022-10-18T22:09:08.596Z,6.90
2022-10-18T22:11:39.341Z,13.52
2022-10-18T22:14:07.367Z,6.07
2022-10-18T22:16:35.349Z,11.88
2022-10-18T22:19:05.162Z,6.18
2022-10-18T22:21:34.042Z,6.75
2022-10-18T22:24:07.449Z,6.10
2022-10-18T22:26:37.705Z,5.03
2022-10-18T22:29:08.097Z,5.38
2022-10-18T22:31:39.288Z,7.13
2022-10-18T22:34:09.263Z,10.93
2022-10-18T22:36:37.691Z,6.10
2022-10-18T22:39:07.984Z,8.27
2022-10-18T22:41:36.549Z,6.45
2022-10-18T22:44:05.009Z,5.72
2022-10-18T22:46:33.597Z,7.50
2022-10-18T22:49:01.550Z,7.13
2022-10-18T22:51:29.575Z,9.13
2022-10-18T22:53:57.476Z,8.85
2022-10-18T22:56:26.805Z,6.22
2022-10-18T22:58:54.717Z,10.82
2022-10-18T23:01:25.009Z,9.10
2022-10-18T23:03:58.563Z,9.95
2022-10-18T23:06:28.965Z,7.60
2022-10-18T23:08:59.009Z,10.00
2022-10-18T23:11:29.551Z,8.50
2022-10-18T23:13:57.479Z,11.80
2022-10-18T23:16:25.795Z,12.20
2022-10-18T23:18:57.032Z,8.20
2022-10-18T23:21:26.642Z,11.60
2022-10-18T23:23:55.467Z,6.72
2022-10-18T23:26:25.535Z,8.10
2022-10-18T23:28:55.841Z,6.55
2022-10-18T23:31:25.846Z,6.88
2022-10-18T23:33:55.270Z,8.00
2022-10-18T23:36:24.204Z,7.45
2022-10-18T23:38:52.448Z,3.25
2022-10-18T23:41:20.999Z,7.10
2022-10-18T23:43:48.927Z,6.70
2022-10-18T23:46:19.320Z,8.88
2022-10-18T23:48:47.978Z,5.65
2022-10-18T23:51:16.750Z,6.45
2022-10-18T23:53:44.634Z,4.80
2022-10-18T23:56:14.267Z,8.20
2022-10-18T23:58:43.250Z,5.40
